« 定点 富山空港他 2024/2/18 sun | トップページ | 趣味的航空路誌改訂情報 2024/2/22 thu »

2024/02/20

定点 富山空港他 2024/2/20 tue

暖かだった日和も冬の寒さに戻ってきましたが、それでも暖かいし、雪がないのが、なんとも気が抜けます。

RJNT 200200Z 03007KT 350V060 7000 -SHRA FEW003 BKN007 BKN010 09/08 Q1023

20240220_rjnt_00ja59an

モヤモヤの北風。RNAVがあって良かった日ですね。

20240220_rjnt_01ja59an
20240220_rjnt_02ja59an
20240220_rjnt_03ja59an
20240220_rjnt_04ja59an

ANA315 RJTT-RJNT JA59AN B737-881

20240220_rjnt_05ja59an
20240220_rjnt_06ja59an
20240220_rjnt_07ja59an
20240220_rjnt_08ja59an

ANA316 RJNT-RJTT JA59AN B737-881

RJNT 200300Z 02008KT 350V050 5000 -SHRA BR FEW003 SCT007 BKN012 09/08 Q1022

20240220_rjnt_09ja13np

今日は、皆さんお休み

20240220_rjnt_10ja13np

JA13NP AW139 新潟県警察「こしかぜ」

20240220_rjnt_11ja91cp

JA91CP AW139 千葉県警察「かとり1号」

20240220_rjnt_12ja14aj

JA14AJ C208 ASK

20240220_rjnt_13tateyama

お山もお休み

20240220_rjnt_14ja57an
20240220_rjnt_15ja57an
20240220_rjnt_16ja57an
20240220_rjnt_17ja57an

ANA1182 RJCC-RJNT JA57AN B737-881

RJNT 200400Z 03009KT 350V070 4000 -SHRA BR FEW005 SCT008 BKN012 09/07 Q1023

20240220_rjnt_18ja57an
20240220_rjnt_19ja57an
20240220_rjnt_20ja57an

ANA1181 RJNT-RJCC JA57AN B737-881

RJNT 200500Z 02008KT 350V060 3500 -SHRA BR FEW005 SCT007 BKN009 08/07 Q1023

20240220_rjnt_21b5801

背風ですがLOC

20240220_rjnt_22b5801
20240220_rjnt_23b5801

CSH825 ZSPD-RJNT B-5801 B737-76D

河原は、ここまで

RJNT 200600Z 01010KT 3500 -SHRA BR FEW005 SCT007 BKN009 08/07 Q1023

【岩瀬浜】本日の難破船

20240220_ziwase_30dongyu

波が高いです。監視船は出ていません。

20240220_ziwase_31dongyu

ホースの収容作業中

20240220_ziwase_32dongyu

救難艇は、撤去されてきました。

20240220_ziwase_33dongyu

波が収まるまで、しばらくは作業できませんね。

|

« 定点 富山空港他 2024/2/18 sun | トップページ | 趣味的航空路誌改訂情報 2024/2/22 thu »

うみ」カテゴリの記事

富山空港」カテゴリの記事

コメント

コメントを書く



(ウェブ上には掲載しません)


コメントは記事投稿者が公開するまで表示されません。



« 定点 富山空港他 2024/2/18 sun | トップページ | 趣味的航空路誌改訂情報 2024/2/22 thu »